Time;durP1;ratioP1;P1;durP2;ratioP2;P2;SDS_P1;SDS_P2;PMS_P1;PMS_P2;Temp;Humidity;BMP_temperature;BMP_pressure;BME280_temperature;BME280_humidity;BME280_pressure;Samples;Min_cycle;Max_cycle;Signal;HPM_P1;HPM_P2
2023/05/11 00:01:32;;;;;;;0.65;0.65;;;;;;;;;;5024652;28;20087;-78
2023/05/11 00:03:59;;;;;;;0.90;0.70;;;;;;;;;;5041146;28;20048;-78
2023/05/11 00:06:26;;;;;;;0.50;0.50;;;;;;;;;;5040606;28;20480;-79
2023/05/11 00:08:53;;;;;;;3.72;0.70;;;;;;;;;;5040779;28;20055;-78
2023/05/11 00:11:19;;;;;;;1.75;0.60;;;;;;;;;;5040306;28;20056;-78
2023/05/11 00:13:46;;;;;;;0.65;0.60;;;;;;;;;;5040407;28;20054;-78
2023/05/11 00:16:13;;;;;;;1.58;0.50;;;;;;;;;;5040080;28;20428;-78
2023/05/11 00:18:40;;;;;;;0.35;0.35;;;;;;;;;;5024212;28;20454;-79
2023/05/11 00:21:07;;;;;;;1.15;0.80;;;;;;;;;;5023947;28;20106;-78
2023/05/11 00:23:34;;;;;;;1.60;0.70;;;;;;;;;;5040270;28;20068;-78
2023/05/11 00:26:00;;;;;;;2.20;0.50;;;;;;;;;;5040240;28;20048;-79
2023/05/11 00:28:27;;;;;;;0.45;0.45;;;;;;;;;;5040251;28;20543;-78
2023/05/11 00:30:57;;;;;;;1.13;0.50;;;;;;;;;;5024030;28;20363;-78
2023/05/11 00:33:24;;;;;;;0.95;0.60;;;;;;;;;;5024449;28;20057;-80
2023/05/11 00:35:51;;;;;;;0.90;0.68;;;;;;;;;;5039895;28;20088;-78
2023/05/11 00:38:18;;;;;;;1.17;0.65;;;;;;;;;;5039859;28;20055;-78
2023/05/11 00:40:45;;;;;;;0.50;0.40;;;;;;;;;;5015231;22;20052;-79
2023/05/11 00:43:12;;;;;;;1.75;0.73;;;;;;;;;;4977411;28;20054;-78
2023/05/11 00:45:39;;;;;;;1.75;0.63;;;;;;;;;;4993691;28;20061;-78
2023/05/11 00:48:06;;;;;;;1.13;0.40;;;;;;;;;;4961618;28;20046;-78
2023/05/11 00:50:33;;;;;;;0.85;0.70;;;;;;;;;;4995119;28;20054;-78
2023/05/11 00:53:00;;;;;;;0.43;0.43;;;;;;;;;;4996419;28;20062;-78
2023/05/11 00:55:27;;;;;;;0.65;0.65;;;;;;;;;;4993256;28;20054;-78
2023/05/11 00:57:54;;;;;;;1.55;0.55;;;;;;;;;;4993123;28;20050;-78
2023/05/11 01:00:21;;;;;;;1.42;0.70;;;;;;;;;;4977153;28;20391;-79
2023/05/11 01:02:48;;;;;;;1.75;0.80;;;;;;;;;;4976770;28;20054;-78
2023/05/11 01:05:15;;;;;;;1.10;1.00;;;;;;;;;;4993216;28;20130;-78
2023/05/11 01:08:10;;;;;;;0.73;0.70;;;;;;;;;;4993276;28;20061;-78
2023/05/11 01:11:07;;;;;;;2.65;0.80;;;;;;;;;;4992705;28;20056;-78
2023/05/11 01:13:38;;;;;;;1.10;0.70;;;;;;;;;;4993260;28;20054;-79
2023/05/11 01:16:27;;;;;;;1.20;0.57;;;;;;;;;;4993060;28;20054;-78
2023/05/11 01:19:00;;;;;;;0.82;0.60;;;;;;;;;;4992726;28;20050;-79
2023/05/11 01:21:29;;;;;;;1.05;0.73;;;;;;;;;;4976832;28;20072;-78
2023/05/11 01:24:20;;;;;;;1.48;0.68;;;;;;;;;;4992747;28;20525;-78
2023/05/11 01:27:33;;;;;;;1.52;0.70;;;;;;;;;;4992612;28;20050;-78
2023/05/11 01:30:41;;;;;;;1.13;0.70;;;;;;;;;;4984958;28;20513;-78
2023/05/11 01:33:10;;;;;;;2.10;0.82;;;;;;;;;;4992033;28;20061;-78
2023/05/11 01:35:41;;;;;;;3.03;0.85;;;;;;;;;;4992393;28;20064;-78
2023/05/11 01:38:10;;;;;;;0.90;0.70;;;;;;;;;;4976556;28;20054;-78
2023/05/11 01:40:38;;;;;;;0.52;0.52;;;;;;;;;;4976311;28;20149;-78
2023/05/11 01:43:17;;;;;;;4.45;1.10;;;;;;;;;;4976500;28;20109;-78
2023/05/11 01:45:45;;;;;;;0.75;0.60;;;;;;;;;;4992461;28;20058;-79
2023/05/11 01:48:18;;;;;;;1.42;0.70;;;;;;;;;;4992537;28;20057;-78
2023/05/11 01:50:45;;;;;;;0.77;0.63;;;;;;;;;;4976340;28;20081;-79
2023/05/11 01:53:11;;;;;;;3.63;0.68;;;;;;;;;;4992344;28;20058;-78
2023/05/11 01:55:38;;;;;;;1.00;0.60;;;;;;;;;;4960109;28;20086;-79
2023/05/11 01:58:06;;;;;;;1.08;0.77;;;;;;;;;;4992192;28;20072;-78
2023/05/11 02:00:33;;;;;;;0.93;0.80;;;;;;;;;;4960082;28;20093;-78
2023/05/11 02:03:00;;;;;;;1.00;0.60;;;;;;;;;;4976022;28;20589;-78
2023/05/11 02:05:27;;;;;;;1.10;0.85;;;;;;;;;;4960017;28;20509;-78
2023/05/11 02:07:55;;;;;;;0.93;0.45;;;;;;;;;;4976065;28;20057;-78
2023/05/11 02:10:24;;;;;;;0.95;0.60;;;;;;;;;;4959621;28;20058;-78
2023/05/11 02:12:52;;;;;;;0.60;0.60;;;;;;;;;;4975671;28;20530;-78
2023/05/11 02:15:21;;;;;;;1.70;0.50;;;;;;;;;;4991253;28;20054;-78
2023/05/11 02:17:48;;;;;;;0.60;0.60;;;;;;;;;;4960067;28;20050;-78
2023/05/11 02:20:15;;;;;;;0.60;0.60;;;;;;;;;;4991749;28;20057;-78
2023/05/11 02:22:42;;;;;;;0.80;0.60;;;;;;;;;;4991680;28;20062;-78
2023/05/11 02:25:09;;;;;;;0.95;0.80;;;;;;;;;;4975582;28;20077;-78
2023/05/11 02:27:36;;;;;;;1.67;0.57;;;;;;;;;;4975453;28;20060;-78
2023/05/11 02:30:04;;;;;;;0.73;0.55;;;;;;;;;;4975377;28;20065;-78
2023/05/11 02:32:33;;;;;;;0.68;0.60;;;;;;;;;;4975461;28;20141;-79
2023/05/11 02:35:04;;;;;;;1.45;0.80;;;;;;;;;;4959669;28;20051;-78
2023/05/11 02:37:32;;;;;;;0.80;0.80;;;;;;;;;;4991475;28;20054;-78
2023/05/11 02:40:05;;;;;;;1.02;0.70;;;;;;;;;;4975199;28;20058;-78
2023/05/11 02:42:35;;;;;;;0.70;0.60;;;;;;;;;;4960113;28;20053;-78
2023/05/11 02:45:07;;;;;;;2.65;0.70;;;;;;;;;;4975786;28;20419;-78
2023/05/11 02:47:51;;;;;;;0.73;0.52;;;;;;;;;;4975555;28;20058;-79
2023/05/11 02:50:19;;;;;;;0.80;0.80;;;;;;;;;;4991214;28;20050;-78
2023/05/11 02:52:47;;;;;;;0.55;0.55;;;;;;;;;;4991768;28;20058;-79
2023/05/11 02:55:16;;;;;;;1.25;0.80;;;;;;;;;;4994638;28;20055;-78
2023/05/11 02:57:44;;;;;;;2.65;0.80;;;;;;;;;;4991411;28;20473;-78
2023/05/11 03:00:12;;;;;;;0.90;0.80;;;;;;;;;;4975599;28;20096;-78
2023/05/11 03:02:38;;;;;;;0.82;0.73;;;;;;;;;;4991242;28;20096;-78
2023/05/11 03:05:05;;;;;;;1.02;0.80;;;;;;;;;;4991055;28;20502;-79
2023/05/11 03:07:32;;;;;;;0.90;0.80;;;;;;;;;;4991220;28;20097;-78
2023/05/11 03:10:01;;;;;;;1.70;0.70;;;;;;;;;;4991493;28;20129;-78
2023/05/11 03:12:31;;;;;;;1.27;0.63;;;;;;;;;;4975319;28;20391;-78
2023/05/11 03:14:59;;;;;;;1.35;0.70;;;;;;;;;;4991108;28;20050;-79
2023/05/11 03:17:27;;;;;;;1.60;0.80;;;;;;;;;;4975150;28;20150;-78
2023/05/11 03:19:54;;;;;;;0.77;0.60;;;;;;;;;;4975052;28;20054;-78
2023/05/11 03:22:21;;;;;;;0.90;0.70;;;;;;;;;;4975083;28;20058;-78
2023/05/11 03:24:48;;;;;;;0.95;0.93;;;;;;;;;;4975604;28;20521;-79
2023/05/11 03:27:15;;;;;;;0.85;0.85;;;;;;;;;;4979037;28;20056;-79
2023/05/11 03:29:43;;;;;;;1.90;0.75;;;;;;;;;;4978919;28;20051;-78
2023/05/11 03:32:11;;;;;;;0.80;0.80;;;;;;;;;;4978924;28;20144;-78
2023/05/11 03:34:37;;;;;;;0.70;0.70;;;;;;;;;;4994794;28;20140;-78
2023/05/11 03:37:08;;;;;;;0.80;0.80;;;;;;;;;;4994702;28;20090;-78
2023/05/11 03:39:35;;;;;;;4.60;1.05;;;;;;;;;;4962816;28;20050;-78
2023/05/11 03:42:02;;;;;;;2.63;1.17;;;;;;;;;;4994699;28;20137;-78
2023/05/11 03:44:31;;;;;;;2.63;0.70;;;;;;;;;;4962493;28;20061;-79
2023/05/11 03:46:57;;;;;;;2.58;0.80;;;;;;;;;;4978806;28;20050;-78
2023/05/11 03:49:24;;;;;;;1.42;0.80;;;;;;;;;;4962532;28;20093;-79
2023/05/11 03:51:52;;;;;;;2.45;0.88;;;;;;;;;;4962311;28;20058;-79
2023/05/11 03:54:18;;;;;;;2.22;0.88;;;;;;;;;;4979847;28;20058;-78
2023/05/11 03:56:45;;;;;;;4.78;0.98;;;;;;;;;;4996622;28;20059;-77
2023/05/11 03:59:15;;;;;;;1.25;1.15;;;;;;;;;;4994111;28;20051;-77
2023/05/11 04:01:42;;;;;;;1.60;0.90;;;;;;;;;;4994231;28;20058;-76
2023/05/11 04:04:27;;;;;;;0.98;0.70;;;;;;;;;;4979084;28;20427;-76
2023/05/11 04:06:57;;;;;;;0.95;0.80;;;;;;;;;;4985517;28;20111;-77
2023/05/11 04:09:24;;;;;;;1.20;0.95;;;;;;;;;;5001660;28;20050;-77
2023/05/11 04:11:52;;;;;;;1.67;0.75;;;;;;;;;;5003801;28;20062;-75
2023/05/11 04:14:19;;;;;;;1.50;0.93;;;;;;;;;;5002673;28;20050;-77
2023/05/11 04:16:50;;;;;;;0.80;0.77;;;;;;;;;;5017302;28;20114;-76
2023/05/11 04:19:17;;;;;;;1.20;1.10;;;;;;;;;;4999972;28;20053;-76
2023/05/11 04:21:45;;;;;;;1.25;1.00;;;;;;;;;;4993586;28;20578;-76
2023/05/11 04:24:12;;;;;;;1.90;1.38;;;;;;;;;;4977753;28;20418;-77
2023/05/11 04:26:39;;;;;;;1.60;0.73;;;;;;;;;;4993786;28;20054;-76
2023/05/11 04:29:05;;;;;;;2.88;1.42;;;;;;;;;;4994034;28;20057;-76
2023/05/11 04:31:32;;;;;;;2.55;0.82;;;;;;;;;;4977718;28;20053;-76
2023/05/11 04:33:59;;;;;;;2.30;0.98;;;;;;;;;;4977870;28;20055;-76
2023/05/11 04:36:26;;;;;;;2.70;0.90;;;;;;;;;;4976831;28;20058;-76
2023/05/11 04:38:53;;;;;;;3.17;0.98;;;;;;;;;;4993593;28;20129;-76
2023/05/11 04:41:19;;;;;;;1.75;0.90;;;;;;;;;;4993421;28;20069;-77
2023/05/11 04:43:46;;;;;;;4.50;1.10;;;;;;;;;;4993438;28;20054;-76
2023/05/11 04:46:13;;;;;;;0.93;0.90;;;;;;;;;;4993595;28;20057;-76
2023/05/11 04:48:40;;;;;;;1.50;1.20;;;;;;;;;;4977721;28;20055;-77
2023/05/11 04:51:07;;;;;;;0.95;0.85;;;;;;;;;;4961691;28;20057;-76
2023/05/11 04:53:34;;;;;;;2.75;1.13;;;;;;;;;;4993671;28;20082;-77
2023/05/11 04:56:01;;;;;;;2.42;0.93;;;;;;;;;;4977376;28;20054;-76
2023/05/11 04:58:28;;;;;;;2.58;1.23;;;;;;;;;;4977466;28;20098;-76
2023/05/11 05:00:54;;;;;;;2.28;0.90;;;;;;;;;;4993230;28;20058;-76
2023/05/11 05:03:21;;;;;;;2.70;1.15;;;;;;;;;;4993468;28;20146;-77
2023/05/11 05:05:48;;;;;;;2.03;0.98;;;;;;;;;;4993326;28;20062;-77
2023/05/11 05:08:16;;;;;;;1.48;1.00;;;;;;;;;;4993261;28;20054;-76
2023/05/11 05:10:43;;;;;;;1.05;1.00;;;;;;;;;;4961259;28;20059;-76
2023/05/11 05:13:10;;;;;;;3.45;1.10;;;;;;;;;;4978356;28;20050;-77
2023/05/11 05:15:36;;;;;;;2.33;0.90;;;;;;;;;;4992910;28;20050;-77
2023/05/11 05:18:03;;;;;;;1.92;1.00;;;;;;;;;;4992981;28;20137;-77
2023/05/11 05:20:30;;;;;;;2.45;1.05;;;;;;;;;;4960618;28;20055;-77
2023/05/11 05:22:57;;;;;;;1.75;1.23;;;;;;;;;;4977025;28;20054;-77
2023/05/11 05:25:24;;;;;;;2.28;1.10;;;;;;;;;;4992781;28;20085;-76
2023/05/11 05:27:51;;;;;;;2.53;0.88;;;;;;;;;;4960759;28;20061;-76
2023/05/11 05:30:18;;;;;;;2.63;1.30;;;;;;;;;;4992587;28;20223;-77
2023/05/11 05:32:45;;;;;;;1.73;1.00;;;;;;;;;;4976631;28;20089;-77
2023/05/11 05:35:11;;;;;;;1.40;1.15;;;;;;;;;;4992625;28;20455;-77
2023/05/11 05:37:38;;;;;;;2.45;1.05;;;;;;;;;;4994072;28;20058;-76
2023/05/11 05:40:06;;;;;;;2.28;1.17;;;;;;;;;;4993377;28;20085;-77
2023/05/11 05:42:32;;;;;;;1.10;0.80;;;;;;;;;;4992598;28;20057;-77
2023/05/11 05:44:59;;;;;;;1.30;0.90;;;;;;;;;;4994290;28;20145;-77
2023/05/11 05:47:28;;;;;;;1.65;0.95;;;;;;;;;;4961703;28;20066;-77
2023/05/11 05:49:54;;;;;;;0.95;0.95;;;;;;;;;;4993425;28;20046;-76
2023/05/11 05:52:21;;;;;;;1.83;1.50;;;;;;;;;;4992327;28;20581;-76
2023/05/11 05:54:48;;;;;;;3.92;1.10;;;;;;;;;;4976069;28;20549;-77
2023/05/11 05:57:14;;;;;;;1.13;0.98;;;;;;;;;;4960286;28;20141;-76
2023/05/11 05:59:41;;;;;;;2.92;1.05;;;;;;;;;;4975960;28;20137;-76
2023/05/11 06:02:08;;;;;;;1.48;1.10;;;;;;;;;;4992160;28;20055;-77
2023/05/11 06:04:35;;;;;;;2.85;1.42;;;;;;;;;;4992231;28;20054;-77
2023/05/11 06:07:02;;;;;;;2.35;1.50;;;;;;;;;;4992424;28;20053;-76
2023/05/11 06:09:28;;;;;;;2.80;1.90;;;;;;;;;;4960136;28;20050;-76
2023/05/11 06:11:56;;;;;;;5.40;1.65;;;;;;;;;;4991669;28;20145;-77
2023/05/11 06:14:22;;;;;;;5.35;1.63;;;;;;;;;;4991829;28;20085;-76
2023/05/11 06:16:49;;;;;;;3.63;1.40;;;;;;;;;;4975872;28;20054;-76
2023/05/11 06:19:16;;;;;;;1.33;1.00;;;;;;;;;;4991773;28;20502;-76
2023/05/11 06:21:44;;;;;;;4.82;1.33;;;;;;;;;;4959664;28;20050;-76
2023/05/11 06:24:11;;;;;;;1.88;1.10;;;;;;;;;;4991994;28;20058;-77
2023/05/11 06:26:38;;;;;;;1.25;0.90;;;;;;;;;;4975729;28;20137;-76
2023/05/11 06:29:08;;;;;;;2.70;1.30;;;;;;;;;;4991512;28;20054;-76
2023/05/11 06:31:35;;;;;;;1.50;1.13;;;;;;;;;;4991622;28;20054;-76
2023/05/11 06:34:02;;;;;;;2.50;1.00;;;;;;;;;;4991748;28;20129;-77
2023/05/11 06:36:31;;;;;;;1.35;1.25;;;;;;;;;;4991535;28;20050;-76
2023/05/11 06:38:57;;;;;;;3.33;1.40;;;;;;;;;;4991357;28;20065;-76
2023/05/11 06:41:24;;;;;;;2.00;1.40;;;;;;;;;;4975349;28;20124;-77
2023/05/11 06:43:51;;;;;;;3.92;1.30;;;;;;;;;;4991355;28;20105;-77
2023/05/11 06:46:18;;;;;;;3.05;1.50;;;;;;;;;;4991597;28;20054;-76
2023/05/11 06:48:45;;;;;;;2.38;2.03;;;;;;;;;;4991237;28;20105;-77
2023/05/11 06:51:12;;;;;;;1.80;1.50;;;;;;;;;;4991150;28;20062;-76
2023/05/11 06:53:38;;;;;;;3.63;1.55;;;;;;;;;;4992018;28;20054;-77
2023/05/11 06:56:06;;;;;;;1.20;1.10;;;;;;;;;;4976480;28;20050;-77
2023/05/11 06:58:32;;;;;;;2.58;1.48;;;;;;;;;;4991631;28;20056;-77
2023/05/11 07:00:59;;;;;;;1.92;1.40;;;;;;;;;;4974925;28;20520;-77
2023/05/11 07:03:26;;;;;;;3.42;1.50;;;;;;;;;;4991463;28;20058;-77
2023/05/11 07:05:53;;;;;;;3.08;1.45;;;;;;;;;;5007887;28;20056;-77
2023/05/11 07:08:20;;;;;;;1.83;1.55;;;;;;;;;;4992486;28;20050;-77
2023/05/11 07:10:46;;;;;;;2.08;1.58;;;;;;;;;;4991012;28;20473;-77
2023/05/11 07:13:13;;;;;;;1.70;1.50;;;;;;;;;;4975246;28;20056;-76
2023/05/11 07:15:40;;;;;;;2.15;1.33;;;;;;;;;;4975308;28;20057;-76
2023/05/11 07:18:07;;;;;;;2.05;1.35;;;;;;;;;;4991432;28;20054;-77
2023/05/11 07:20:35;;;;;;;1.63;1.50;;;;;;;;;;4974733;28;20418;-76
2023/05/11 07:23:02;;;;;;;2.83;1.60;;;;;;;;;;4991206;28;20069;-76
2023/05/11 07:25:29;;;;;;;2.08;1.67;;;;;;;;;;4974920;28;20061;-77
2023/05/11 07:27:56;;;;;;;3.80;1.80;;;;;;;;;;4975243;28;20137;-77
2023/05/11 07:30:23;;;;;;;4.32;1.77;;;;;;;;;;4992261;28;20050;-76
2023/05/11 07:32:50;;;;;;;2.45;1.70;;;;;;;;;;4991048;28;20102;-76
2023/05/11 07:35:17;;;;;;;2.00;1.80;;;;;;;;;;4991161;28;20108;-77
2023/05/11 07:37:44;;;;;;;1.88;1.40;;;;;;;;;;4991028;28;20533;-76
2023/05/11 07:40:11;;;;;;;5.32;1.45;;;;;;;;;;4990564;28;20056;-77
2023/05/11 07:42:37;;;;;;;1.75;1.42;;;;;;;;;;4991235;28;20061;-77
2023/05/11 07:45:04;;;;;;;3.38;1.70;;;;;;;;;;4974883;28;20075;-77
2023/05/11 07:47:31;;;;;;;3.15;1.63;;;;;;;;;;4974889;28;20054;-76
2023/05/11 07:50:02;;;;;;;3.28;1.90;;;;;;;;;;4990860;28;20133;-77
2023/05/11 07:52:29;;;;;;;2.13;1.95;;;;;;;;;;4975474;28;20068;-77
2023/05/11 07:54:56;;;;;;;2.20;1.55;;;;;;;;;;4990781;28;20101;-77
2023/05/11 07:57:22;;;;;;;4.75;1.90;;;;;;;;;;4990809;28;20137;-76
2023/05/11 07:59:50;;;;;;;3.30;1.95;;;;;;;;;;4974420;28;20090;-77
2023/05/11 08:02:17;;;;;;;2.72;1.75;;;;;;;;;;4990745;28;20057;-76
2023/05/11 08:04:45;;;;;;;4.53;2.35;;;;;;;;;;4974661;28;20097;-77
2023/05/11 08:07:11;;;;;;;4.55;1.83;;;;;;;;;;4974781;28;20057;-77
2023/05/11 08:09:38;;;;;;;2.50;1.73;;;;;;;;;;4974243;28;20239;-77
2023/05/11 08:12:05;;;;;;;6.57;2.08;;;;;;;;;;4991286;28;20069;-77
2023/05/11 08:14:32;;;;;;;1.98;1.77;;;;;;;;;;4994124;28;20400;-77
2023/05/11 08:16:59;;;;;;;5.97;3.42;;;;;;;;;;4994308;28;20141;-77
2023/05/11 08:19:26;;;;;;;4.53;2.40;;;;;;;;;;4994036;28;20059;-77
2023/05/11 08:21:52;;;;;;;2.72;2.08;;;;;;;;;;4993752;28;20133;-77
2023/05/11 08:24:19;;;;;;;3.33;2.10;;;;;;;;;;5010123;28;20054;-77
2023/05/11 08:26:47;;;;;;;2.70;2.05;;;;;;;;;;4993974;28;20502;-77
2023/05/11 08:29:14;;;;;;;2.20;2.00;;;;;;;;;;4993905;28;20066;-77
2023/05/11 08:31:43;;;;;;;2.80;1.85;;;;;;;;;;4978053;28;20082;-77
2023/05/11 08:34:10;;;;;;;3.63;2.10;;;;;;;;;;4993509;28;20050;-77
2023/05/11 08:36:45;;;;;;;3.10;2.05;;;;;;;;;;4978903;28;20054;-76
2023/05/11 08:39:12;;;;;;;3.45;2.70;;;;;;;;;;4993505;28;20586;-77
2023/05/11 08:41:39;;;;;;;2.47;2.28;;;;;;;;;;4977505;28;20061;-77
2023/05/11 08:44:06;;;;;;;2.67;2.08;;;;;;;;;;4993550;28;20069;-77
2023/05/11 08:46:34;;;;;;;2.80;2.53;;;;;;;;;;4993620;28;20097;-77
2023/05/11 08:49:01;;;;;;;4.90;2.22;;;;;;;;;;4961825;28;20104;-77
2023/05/11 08:51:28;;;;;;;3.00;2.50;;;;;;;;;;4977411;28;20513;-77
2023/05/11 08:53:56;;;;;;;2.80;2.40;;;;;;;;;;4977576;28;20058;-77
2023/05/11 08:56:23;;;;;;;2.83;2.63;;;;;;;;;;4977532;28;20090;-77
2023/05/11 08:58:51;;;;;;;3.42;2.90;;;;;;;;;;4977364;28;20061;-77
2023/05/11 09:01:22;;;;;;;4.82;2.35;;;;;;;;;;4977435;28;20046;-77
2023/05/11 09:03:49;;;;;;;4.85;3.05;;;;;;;;;;4993455;28;20105;-77
2023/05/11 09:06:16;;;;;;;3.95;2.85;;;;;;;;;;4993285;28;20121;-77
2023/05/11 09:08:44;;;;;;;3.10;2.50;;;;;;;;;;4976979;28;20046;-77
2023/05/11 09:11:11;;;;;;;2.85;2.50;;;;;;;;;;4992788;28;20562;-77
2023/05/11 09:13:37;;;;;;;3.35;2.30;;;;;;;;;;4977024;28;20054;-77
2023/05/11 09:16:04;;;;;;;2.60;2.35;;;;;;;;;;4992968;28;20057;-76
2023/05/11 09:18:49;;;;;;;4.35;2.90;;;;;;;;;;4993324;28;20065;-77
2023/05/11 09:21:16;;;;;;;6.95;2.80;;;;;;;;;;4977018;28;20450;-77
2023/05/11 09:23:43;;;;;;;4.65;2.95;;;;;;;;;;4976540;28;20058;-77
2023/05/11 09:26:16;;;;;;;2.70;2.45;;;;;;;;;;4976690;28;20058;-77
2023/05/11 09:28:49;;;;;;;4.07;2.65;;;;;;;;;;5009304;28;20061;-77
2023/05/11 09:31:48;;;;;;;2.85;2.35;;;;;;;;;;4994002;28;20503;-77
2023/05/11 09:34:17;;;;;;;3.05;2.40;;;;;;;;;;4994156;28;20465;-77
2023/05/11 09:36:52;;;;;;;3.67;2.80;;;;;;;;;;4977844;28;20120;-77
2023/05/11 09:39:29;;;;;;;3.15;2.15;;;;;;;;;;4993824;28;20118;-77
2023/05/11 09:42:25;;;;;;;3.53;2.70;;;;;;;;;;4993174;28;20098;-77
2023/05/11 09:44:52;;;;;;;2.83;2.55;;;;;;;;;;4976278;28;20065;-77
2023/05/11 09:47:21;;;;;;;3.28;2.33;;;;;;;;;;4992682;28;20058;-77
2023/05/11 09:49:48;;;;;;;2.10;1.98;;;;;;;;;;4992433;28;20050;-77
2023/05/11 09:52:16;;;;;;;5.05;2.45;;;;;;;;;;4992380;28;20330;-77
2023/05/11 09:54:47;;;;;;;3.85;2.55;;;;;;;;;;4992343;28;20054;-77
2023/05/11 09:57:28;;;;;;;3.28;2.10;;;;;;;;;;4992525;28;20054;-77
2023/05/11 09:59:57;;;;;;;3.28;1.90;;;;;;;;;;4980164;28;20105;-77
2023/05/11 10:02:28;;;;;;;2.65;2.28;;;;;;;;;;4992234;28;20144;-77
2023/05/11 10:04:56;;;;;;;5.03;2.00;;;;;;;;;;4976236;28;20403;-77
2023/05/11 10:07:33;;;;;;;2.90;2.00;;;;;;;;;;4976443;28;20054;-76
2023/05/11 10:10:05;;;;;;;3.05;1.98;;;;;;;;;;5007754;28;20482;-77
2023/05/11 10:12:32;;;;;;;2.65;1.90;;;;;;;;;;4976101;28;20054;-77
2023/05/11 10:15:02;;;;;;;3.40;2.00;;;;;;;;;;5008351;28;20047;-77
2023/05/11 10:17:29;;;;;;;4.03;2.40;;;;;;;;;;4992495;28;20101;-77
2023/05/11 10:19:57;;;;;;;2.70;2.50;;;;;;;;;;4991697;28;20058;-77
2023/05/11 10:22:24;;;;;;;4.57;2.13;;;;;;;;;;4976032;28;20062;-77
2023/05/11 10:24:52;;;;;;;4.15;2.30;;;;;;;;;;4992321;28;20089;-75
2023/05/11 10:27:20;;;;;;;2.20;1.98;;;;;;;;;;4975645;28;20137;-75
2023/05/11 10:29:47;;;;;;;2.60;2.20;;;;;;;;;;4991573;28;20495;-74
2023/05/11 10:32:15;;;;;;;3.78;3.35;;;;;;;;;;4975739;28;20054;-76
2023/05/11 10:34:43;;;;;;;3.10;2.60;;;;;;;;;;4991084;28;20050;-75
2023/05/11 10:37:10;;;;;;;3.63;2.78;;;;;;;;;;4991643;28;20058;-76
2023/05/11 10:39:38;;;;;;;3.60;2.22;;;;;;;;;;4959710;28;20050;-75
2023/05/11 10:42:29;;;;;;;4.15;2.80;;;;;;;;;;4959604;28;20058;-75
2023/05/11 10:45:03;;;;;;;3.28;2.35;;;;;;;;;;4991639;28;20062;-76
2023/05/11 10:47:51;;;;;;;3.33;2.20;;;;;;;;;;4975407;28;20050;-75
2023/05/11 10:50:42;;;;;;;2.50;2.30;;;;;;;;;;4975414;28;20047;-76
2023/05/11 10:53:37;;;;;;;4.28;2.25;;;;;;;;;;4991524;28;20512;-75
2023/05/11 10:56:05;;;;;;;4.10;2.28;;;;;;;;;;4975246;28;20062;-76
2023/05/11 10:58:34;;;;;;;2.30;1.95;;;;;;;;;;4991441;28;20509;-75
2023/05/11 11:01:38;;;;;;;2.83;2.08;;;;;;;;;;4991060;28;20046;-75
2023/05/11 11:04:08;;;;;;;;;;;;;;;;;;4981215;28;20058;-75
2023/05/11 11:06:37;;;;;;;2.72;1.60;;;;;;;;;;5007897;28;19931;-75
2023/05/11 11:09:10;;;;;;;3.28;2.00;;;;;;;;;;4993215;28;20062;-75
2023/05/11 11:11:46;;;;;;;2.75;2.00;;;;;;;;;;4975676;28;20058;-75
2023/05/11 11:14:14;;;;;;;2.95;1.50;;;;;;;;;;4991460;28;20142;-76
2023/05/11 11:17:23;;;;;;;2.72;2.13;;;;;;;;;;4960083;28;20055;-75
2023/05/11 11:19:50;;;;;;;4.57;2.92;;;;;;;;;;4975127;28;20097;-75
2023/05/11 11:22:35;;;;;;;3.47;2.22;;;;;;;;;;4991096;28;20062;-75
2023/05/11 11:25:05;;;;;;;1.67;1.42;;;;;;;;;;4991266;28;20054;-75
2023/05/11 11:27:44;;;;;;;2.00;1.42;;;;;;;;;;4975442;28;20078;-76
2023/05/11 11:30:19;;;;;;;3.85;1.38;;;;;;;;;;4991160;28;20120;-76
2023/05/11 11:32:54;;;;;;;3.17;1.77;;;;;;;;;;4991344;28;20046;-76
2023/05/11 11:35:42;;;;;;;3.30;1.75;;;;;;;;;;4990945;28;20423;-75
2023/05/11 11:38:10;;;;;;;3.63;1.88;;;;;;;;;;4991172;28;20541;-75
2023/05/11 11:40:53;;;;;;;2.78;1.75;;;;;;;;;;4958631;28;20577;-75
2023/05/11 11:43:24;;;;;;;1.85;1.75;;;;;;;;;;4991217;28;20105;-76
2023/05/11 11:45:55;;;;;;;1.48;1.38;;;;;;;;;;4991362;28;20145;-74
2023/05/11 11:48:26;;;;;;;2.13;1.80;;;;;;;;;;4994652;28;20491;-75
2023/05/11 11:51:04;;;;;;;1.98;1.70;;;;;;;;;;4978705;28;20414;-76
2023/05/11 11:53:40;;;;;;;2.88;1.38;;;;;;;;;;4978800;28;20050;-75
2023/05/11 11:56:27;;;;;;;4.68;1.35;;;;;;;;;;4995755;28;20503;-75
2023/05/11 11:58:58;;;;;;;1.52;1.23;;;;;;;;;;4994969;28;20054;-75
2023/05/11 12:01:28;;;;;;;1.88;1.40;;;;;;;;;;4978088;28;20101;-76
2023/05/11 12:04:09;;;;;;;2.22;1.67;;;;;;;;;;4994569;28;20058;-75
2023/05/11 12:06:40;;;;;;;1.10;1.00;;;;;;;;;;4994804;28;20054;-75
2023/05/11 12:09:07;;;;;;;1.65;1.42;;;;;;;;;;4977994;28;20093;-75
2023/05/11 12:11:34;;;;;;;2.45;0.90;;;;;;;;;;4994026;28;20051;-76
2023/05/11 12:14:01;;;;;;;0.75;0.65;;;;;;;;;;4994373;28;20089;-75
2023/05/11 12:16:29;;;;;;;1.10;0.75;;;;;;;;;;4995100;28;20108;-76
2023/05/11 12:18:57;;;;;;;0.60;0.60;;;;;;;;;;4978661;28;20093;-75
2023/05/11 12:21:30;;;;;;;1.98;1.05;;;;;;;;;;4994107;28;20426;-75
2023/05/11 12:24:02;;;;;;;1.30;1.20;;;;;;;;;;4978490;28;20140;-75
2023/05/11 12:26:30;;;;;;;1.92;1.40;;;;;;;;;;4978043;28;20050;-75
2023/05/11 12:29:10;;;;;;;2.80;1.83;;;;;;;;;;4994067;28;20125;-75
2023/05/11 12:31:41;;;;;;;2.10;1.45;;;;;;;;;;4977702;28;20190;-75
2023/05/11 12:34:15;;;;;;;2.92;1.50;;;;;;;;;;4994113;28;20411;-76
2023/05/11 12:36:43;;;;;;;1.88;1.30;;;;;;;;;;4977952;28;20101;-75
2023/05/11 12:39:30;;;;;;;2.03;1.20;;;;;;;;;;4977705;28;20593;-76
2023/05/11 12:41:57;;;;;;;1.17;1.05;;;;;;;;;;4977615;28;20141;-75
2023/05/11 12:44:25;;;;;;;1.85;1.02;;;;;;;;;;4993882;28;20078;-75
2023/05/11 12:46:52;;;;;;;1.73;1.27;;;;;;;;;;4977742;28;20046;-75
2023/05/11 12:49:22;;;;;;;1.20;0.70;;;;;;;;;;4977763;28;20477;-75
2023/05/11 12:51:58;;;;;;;2.22;0.88;;;;;;;;;;4978127;28;20062;-75
2023/05/11 12:54:28;;;;;;;0.77;0.50;;;;;;;;;;4993506;28;20062;-75
2023/05/11 12:56:55;;;;;;;0.70;0.70;;;;;;;;;;4993852;28;20109;-75
2023/05/11 12:59:26;;;;;;;2.13;0.70;;;;;;;;;;4976744;28;20082;-75
2023/05/11 13:01:53;;;;;;;1.33;1.00;;;;;;;;;;4961385;28;20082;-75
2023/05/11 13:04:30;;;;;;;0.90;0.90;;;;;;;;;;4995373;28;20054;-75
2023/05/11 13:06:56;;;;;;;3.00;1.10;;;;;;;;;;4994267;28;20047;-75
2023/05/11 13:09:24;;;;;;;1.67;1.00;;;;;;;;;;4993803;28;20069;-75
2023/05/11 13:12:13;;;;;;;2.40;1.00;;;;;;;;;;4993697;28;20141;-74
2023/05/11 13:14:40;;;;;;;3.60;1.02;;;;;;;;;;4993350;28;20061;-75
2023/05/11 13:17:07;;;;;;;1.60;0.77;;;;;;;;;;4993208;28;20137;-75
2023/05/11 13:19:36;;;;;;;0.95;0.75;;;;;;;;;;4992943;28;20086;-75
2023/05/11 13:22:03;;;;;;;0.60;0.60;;;;;;;;;;4992825;28;20458;-75
2023/05/11 13:24:30;;;;;;;0.63;0.63;;;;;;;;;;4993126;28;20047;-75
2023/05/11 13:26:59;;;;;;;1.10;0.80;;;;;;;;;;4977389;28;20046;-75
2023/05/11 13:29:26;;;;;;;1.42;0.90;;;;;;;;;;4993406;28;20491;-75
2023/05/11 13:31:53;;;;;;;1.13;0.80;;;;;;;;;;4961230;28;20085;-75
2023/05/11 13:34:20;;;;;;;1.10;1.00;;;;;;;;;;4992577;28;20058;-75
2023/05/11 13:36:47;;;;;;;0.82;0.70;;;;;;;;;;4992745;28;20466;-76
2023/05/11 13:39:14;;;;;;;1.17;0.70;;;;;;;;;;4992685;28;20058;-75
2023/05/11 13:41:41;;;;;;;0.98;0.88;;;;;;;;;;4976347;28;20057;-75
2023/05/11 13:44:08;;;;;;;0.82;0.73;;;;;;;;;;4976414;28;20093;-76
2023/05/11 13:46:35;;;;;;;1.75;0.70;;;;;;;;;;4992644;28;20090;-75
2023/05/11 13:49:02;;;;;;;1.10;0.90;;;;;;;;;;4992605;28;20058;-76
2023/05/11 13:51:29;;;;;;;1.10;1.00;;;;;;;;;;4992689;28;20051;-76
2023/05/11 13:53:58;;;;;;;2.25;1.00;;;;;;;;;;4976588;28;20050;-75
2023/05/11 13:56:24;;;;;;;1.27;0.95;;;;;;;;;;4992566;28;20054;-76
2023/05/11 13:58:51;;;;;;;2.13;0.93;;;;;;;;;;4992352;28;20060;-76
2023/05/11 14:01:18;;;;;;;1.00;0.90;;;;;;;;;;4991850;28;20422;-76
2023/05/11 14:03:50;;;;;;;1.20;1.10;;;;;;;;;;4976511;28;20116;-76
2023/05/11 14:06:17;;;;;;;3.45;1.48;;;;;;;;;;4992315;28;20058;-76
2023/05/11 14:08:44;;;;;;;0.77;0.77;;;;;;;;;;4992002;28;20054;-76
2023/05/11 14:11:10;;;;;;;1.10;0.65;;;;;;;;;;4992100;28;20052;-76
2023/05/11 14:13:37;;;;;;;0.82;0.80;;;;;;;;;;4992020;28;20142;-76
2023/05/11 14:16:04;;;;;;;4.95;1.35;;;;;;;;;;4991830;28;20577;-76
2023/05/11 14:18:31;;;;;;;1.67;0.63;;;;;;;;;;4992310;28;20084;-76
2023/05/11 14:20:59;;;;;;;2.20;0.88;;;;;;;;;;4991817;28;20058;-76
2023/05/11 14:23:26;;;;;;;0.95;0.70;;;;;;;;;;5008024;28;20046;-75
2023/05/11 14:25:52;;;;;;;0.60;0.60;;;;;;;;;;4975925;28;20486;-76
2023/05/11 14:28:19;;;;;;;1.30;0.75;;;;;;;;;;5027846;28;20105;-75
2023/05/11 14:30:46;;;;;;;1.27;0.93;;;;;;;;;;5011042;28;20089;-75
2023/05/11 14:33:13;;;;;;;1.42;0.95;;;;;;;;;;5009954;28;20054;-75
2023/05/11 14:35:40;;;;;;;1.08;0.90;;;;;;;;;;5011342;28;20082;-75
2023/05/11 14:38:06;;;;;;;1.27;0.80;;;;;;;;;;5015160;28;20041;-76
2023/05/11 14:40:33;;;;;;;0.73;0.70;;;;;;;;;;4998713;28;20054;-76
2023/05/11 14:43:00;;;;;;;1.02;0.70;;;;;;;;;;5013845;28;20106;-75
2023/05/11 14:45:27;;;;;;;0.50;0.50;;;;;;;;;;4997375;28;20109;-75
2023/05/11 14:47:53;;;;;;;1.58;0.55;;;;;;;;;;4982493;28;20519;-75
2023/05/11 14:50:20;;;;;;;1.60;0.75;;;;;;;;;;4999500;28;20090;-76
2023/05/11 14:52:47;;;;;;;1.98;0.60;;;;;;;;;;4981332;28;20113;-75
2023/05/11 14:55:14;;;;;;;0.88;0.70;;;;;;;;;;4998027;28;20053;-75
2023/05/11 14:57:41;;;;;;;1.23;0.80;;;;;;;;;;4979943;28;20118;-75